^^
Saratoga-Weather Station Historical Data
Daily Summary for June 26, 2022 Units:  Metric    English   Both
Daily Weekly Monthly Yearly Custom
  High: Low: Average:
Temperature: 18.8 °C 14.8 °C 16.8 °C
Dew Point: 15.5 °C 13.8 °C 14.7 °C
Humidity: 96% 75% 88%
Wind Speed: 9.7km/h 0km/h 1.8km/h
Wind Gust: 14.5km/h - -
Wind- - WSW
Pressure: 1015.6 hPa 1011.5 hPa -
Precipitation: 1.8 mm    
Historical Graphs
 
 
Tabular Data for June 26, 2022
Time Temperature Dew Point Pressure Wind Wind Speed Wind Gust Humidity Rainfall Rate (Hourly) solar
00:04 16 °C 14.7 °C 1011.5 hPa Calm     92% 0.0 mm 0 W/m2
00:09 16 °C 14.7 °C 1011.5 hPa WSW 3.2 km/h 4.8 km/h 92% 0.0 mm 0 W/m2
00:14 16 °C 14.9 °C 1011.9 hPa WSW 4.7 km/h 6.4 km/h 93% 0.0 mm 0 W/m2
00:19 16 °C 14.9 °C 1011.9 hPa WSW 3.2 km/h 4.8 km/h 93% 0.0 mm 0 W/m2
00:24 15.9 °C 14.8 °C 1011.5 hPa WSW 3.2 km/h 6.4 km/h 93% 0.0 mm 0 W/m2
00:29 15.9 °C 14.8 °C 1011.5 hPa WNW 1.4 km/h 4.8 km/h 93% 0.0 mm 0 W/m2
00:34 15.9 °C 14.8 °C 1011.9 hPa WNW 3.2 km/h 3.2 km/h 93% 0.0 mm 0 W/m2
00:39 15.9 °C 14.8 °C 1011.9 hPa Calm   4.8 km/h 93% 0.0 mm 0 W/m2
00:44 15.9 °C 14.8 °C 1011.9 hPa Calm     93% 0.0 mm 0 W/m2
00:49 15.8 °C 14.7 °C 1012.2 hPa Calm   1.6 km/h 93% 0.0 mm 0 W/m2
00:54 15.8 °C 14.7 °C 1011.9 hPa WNW 1.4 km/h 1.6 km/h 93% 0.0 mm 0 W/m2
00:59 15.8 °C 14.7 °C 1012.2 hPa WNW 3.2 km/h 3.2 km/h 93% 0.0 mm 0 W/m2
01:04 15.8 °C 14.7 °C 1012.2 hPa Calm     93% 0.0 mm 0 W/m2
01:09 15.8 °C 14.7 °C 1012.2 hPa Calm     93% 0.0 mm 0 W/m2
01:14 15.8 °C 14.7 °C 1012.5 hPa Calm     93% 0.0 mm 0 W/m2
01:19 15.8 °C 14.7 °C 1012.5 hPa Calm     93% 0.0 mm 0 W/m2
01:24 15.8 °C 14.7 °C 1012.5 hPa Calm     93% 0.0 mm 0 W/m2
01:29 15.8 °C 14.7 °C 1012.5 hPa Calm     93% 0.0 mm 0 W/m2
01:34 15.7 °C 14.6 °C 1012.9 hPa Calm   1.6 km/h 93% 0.0 mm 0 W/m2
01:39 15.7 °C 14.6 °C 1012.9 hPa WNW 1.4 km/h 1.6 km/h 93% 0.0 mm 0 W/m2
01:44 15.7 °C 14.6 °C 1012.9 hPa Calm     93% 0.0 mm 0 W/m2
01:49 15.7 °C 14.6 °C 1012.9 hPa WNW 1.4 km/h 1.6 km/h 93% 0.0 mm 0 W/m2
01:54 15.7 °C 14.6 °C 1012.9 hPa Calm   1.6 km/h 93% 0.0 mm 0 W/m2
01:59 15.7 °C 14.6 °C 1012.9 hPa Calm     93% 0.0 mm 0 W/m2
02:04 15.6 °C 14.6 °C 1012.9 hPa Calm   1.6 km/h 94% 0.0 mm 0 W/m2
02:09 15.6 °C 14.6 °C 1012.9 hPa Calm     94% 0.0 mm 0 W/m2
02:14 15.6 °C 14.6 °C 1012.9 hPa Calm   1.6 km/h 94% 0.0 mm 0 W/m2
02:19 15.6 °C 14.6 °C 1012.9 hPa Calm     94% 0.0 mm 0 W/m2
02:24 15.6 °C 14.6 °C 1012.9 hPa Calm     94% 0.0 mm 0 W/m2
02:29 15.6 °C 14.6 °C 1012.9 hPa Calm     94% 0.0 mm 0 W/m2
02:34 15.5 °C 14.5 °C 1012.9 hPa Calm   1.6 km/h 94% 0.0 mm 0 W/m2
02:39 15.4 °C 14.4 °C 1012.9 hPa Calm   1.6 km/h 94% 0.0 mm 0 W/m2
02:44 15.4 °C 14.4 °C 1012.9 hPa Calm     94% 0.0 mm 0 W/m2
02:49 15.3 °C 14.3 °C 1012.9 hPa Calm     94% 0.0 mm 0 W/m2
02:54 15.3 °C 14.3 °C 1012.9 hPa Calm     94% 0.0 mm 0 W/m2
02:59 15.2 °C 14.2 °C 1012.9 hPa Calm     94% 0.0 mm 0 W/m2
03:04 15.1 °C 14.1 °C 1013.2 hPa Calm     94% 0.0 mm 0 W/m2
03:09 15.1 °C 14.1 °C 1013.2 hPa Calm     94% 0.0 mm 0 W/m2
03:14 15 °C 14 °C 1013.2 hPa North 1.4 km/h 3.2 km/h 94% 0.0 mm 0 W/m2
03:19 15 °C 14 °C 1013.2 hPa Calm     94% 0.0 mm 0 W/m2
03:24 14.9 °C 13.9 °C 1013.2 hPa Calm   3.2 km/h 94% 0.0 mm 0 W/m2
03:29 14.9 °C 13.9 °C 1012.9 hPa Calm     94% 0.0 mm 0 W/m2
03:34 14.9 °C 13.9 °C 1013.2 hPa Calm   1.6 km/h 94% 0.0 mm 0 W/m2
03:39 14.8 °C 13.8 °C 1013.2 hPa Calm   3.2 km/h 94% 0.0 mm 0 W/m2
03:44 14.8 °C 13.8 °C 1013.2 hPa Calm     94% 0.0 mm 0 W/m2
03:49 14.8 °C 13.8 °C 1012.9 hPa Calm     94% 0.0 mm 0 W/m2
03:54 14.8 °C 14 °C 1012.9 hPa WSW 1.4 km/h 3.2 km/h 95% 0.0 mm 0 W/m2
03:59 14.8 °C 14 °C 1012.9 hPa Calm   1.6 km/h 95% 0.0 mm 0 W/m2
04:04 14.8 °C 14 °C 1012.9 hPa Calm   1.6 km/h 95% 0.0 mm 0 W/m2
04:09 14.8 °C 14 °C 1012.9 hPa West 1.4 km/h 4.8 km/h 95% 0.0 mm 0 W/m2
04:14 14.9 °C 14.1 °C 1012.9 hPa West 3.2 km/h 4.8 km/h 95% 0.0 mm 0 W/m2
04:19 15.1 °C 14.3 °C 1012.9 hPa West 1.4 km/h 1.6 km/h 95% 0.0 mm 0 W/m2
04:24 15.1 °C 14.3 °C 1012.5 hPa Calm   4.8 km/h 95% 0.0 mm 0 W/m2
04:29 15.1 °C 14.3 °C 1012.5 hPa West 1.4 km/h 3.2 km/h 95% 0.0 mm 0 W/m2
04:34 15.2 °C 14.4 °C 1012.5 hPa Calm     95% 0.0 mm 0 W/m2
04:39 15.2 °C 14.4 °C 1012.9 hPa West 1.4 km/h 3.2 km/h 95% 0.0 mm 0 W/m2
04:44 15.2 °C 14.4 °C 1012.5 hPa Calm   1.6 km/h 95% 0.0 mm 0 W/m2
04:49 15.2 °C 14.4 °C 1012.5 hPa Calm   1.6 km/h 95% 0.0 mm 0 W/m2
04:54 15.2 °C 14.4 °C 1012.9 hPa Calm     95% 0.0 mm 0 W/m2
04:59 15.2 °C 14.4 °C 1012.9 hPa Calm   1.6 km/h 95% 0.0 mm 0 W/m2
05:04 15.2 °C 14.4 °C 1012.9 hPa West 1.4 km/h 3.2 km/h 95% 0.0 mm 0 W/m2
05:09 15.2 °C 14.4 °C 1012.9 hPa West 1.4 km/h 3.2 km/h 95% 0.0 mm 0 W/m2
05:14 15.2 °C 14.4 °C 1012.9 hPa Calm     95% 0.0 mm 0 W/m2
05:19 15.2 °C 14.4 °C 1012.9 hPa Calm     95% 0.0 mm 0 W/m2
05:24 15.2 °C 14.4 °C 1012.9 hPa Calm     95% 0.0 mm 0 W/m2
05:29 15.1 °C 14.3 °C 1013.2 hPa Calm     95% 0.0 mm 0 W/m2
05:34 15.1 °C 14.3 °C 1013.2 hPa Calm     95% 0.0 mm 0 W/m2
05:40 15.1 °C 14.3 °C 1013.2 hPa Calm     95% 0.0 mm 5 W/m2
05:45 15.1 °C 14.3 °C 1012.9 hPa Calm     95% 0.0 mm 5 W/m2
05:50 15.1 °C 14.3 °C 1012.9 hPa Calm     95% 0.0 mm 5 W/m2
05:55 15.1 °C 14.3 °C 1013.2 hPa Calm     95% 0.0 mm 7 W/m2
06:00 15.1 °C 14.3 °C 1013.2 hPa Calm     95% 0.0 mm 11 W/m2
06:05 15 °C 14.2 °C 1013.5 hPa Calm     95% 0.0 mm 14 W/m2
06:10 15 °C 14.2 °C 1013.2 hPa Calm     95% 0.0 mm 16 W/m2
06:15 15 °C 14.2 °C 1013.2 hPa Calm     95% 0.0 mm 14 W/m2
06:20 15.1 °C 14.3 °C 1013.2 hPa Calm     95% 0.0 mm 14 W/m2
06:25 15.1 °C 14.3 °C 1013.2 hPa Calm     95% 0.0 mm 16 W/m2
06:30 15.1 °C 14.5 °C 1013.5 hPa Calm     96% 0.0 mm 23 W/m2
06:35 15.2 °C 14.6 °C 1013.5 hPa Calm     96% 0.0 mm 18 W/m2
06:40 15.2 °C 14.4 °C 1013.5 hPa Calm   1.6 km/h 95% 0.0 mm 16 W/m2
06:45 15.3 °C 14.5 °C 1013.5 hPa Calm     95% 0.0 mm 28 W/m2
06:50 15.3 °C 14.5 °C 1013.5 hPa Calm   1.6 km/h 95% 0.0 mm 40 W/m2
06:55 15.3 °C 14.5 °C 1013.5 hPa Calm     95% 0.0 mm 44 W/m2
07:00 15.3 °C 14.5 °C 1013.5 hPa Calm   1.6 km/h 95% 0.0 mm 32 W/m2
07:05 15.3 °C 14.5 °C 1013.5 hPa Calm     95% 0.0 mm 28 W/m2
07:10 15.4 °C 14.6 °C 1013.5 hPa Calm     95% 0.0 mm 32 W/m2
07:15 15.3 °C 14.5 °C 1013.5 hPa Calm     95% 0.0 mm 39 W/m2
07:20 15.4 °C 14.6 °C 1013.9 hPa Calm     95% 0.0 mm 83 W/m2
07:25 15.4 °C 14.6 °C 1013.9 hPa Calm   1.6 km/h 95% 0.0 mm 79 W/m2
07:30 15.7 °C 14.9 °C 1013.9 hPa WNW 1.4 km/h 3.2 km/h 95% 0.0 mm 162 W/m2
07:35 15.9 °C 15.1 °C 1013.9 hPa WNW 3.2 km/h 4.8 km/h 95% 0.0 mm 206 W/m2
07:40 16.1 °C 15.1 °C 1013.9 hPa WNW 3.2 km/h 12.9 km/h 94% 0.0 mm 258 W/m2
07:45 16.3 °C 15.2 °C 1013.9 hPa NW 3.2 km/h 4.8 km/h 93% 0.0 mm 244 W/m2
07:50 16.6 °C 15.3 °C 1013.9 hPa WSW 1.4 km/h 11.3 km/h 92% 0.0 mm 306 W/m2
07:55 16.8 °C 15.3 °C 1013.9 hPa West 1.4 km/h 3.2 km/h 91% 0.0 mm 239 W/m2
08:00 17 °C 15.3 °C 1014.2 hPa WSW 1.4 km/h 8 km/h 90% 0.0 mm 128 W/m2
08:05 17 °C 15.2 °C 1014.2 hPa WNW 7.9 km/h 9.7 km/h 89% 0.0 mm 60 W/m2
08:10 16.9 °C 15.1 °C 1014.6 hPa WSW 3.2 km/h 6.4 km/h 89% 0.0 mm 95 W/m2
08:15 16.7 °C 14.9 °C 1014.2 hPa West 4.7 km/h 9.7 km/h 89% 0.0 mm 151 W/m2
08:20 16.7 °C 14.9 °C 1014.6 hPa WNW 3.2 km/h 4.8 km/h 89% 0.0 mm 188 W/m2
08:25 16.8 °C 15 °C 1014.6 hPa West 3.2 km/h 4.8 km/h 89% 0.0 mm 185 W/m2
08:30 16.9 °C 15.1 °C 1014.6 hPa Calm   1.6 km/h 89% 0.0 mm 220 W/m2
08:35 17.2 °C 15.2 °C 1014.6 hPa South 3.2 km/h 6.4 km/h 88% 0.0 mm 223 W/m2
08:40 17.4 °C 15.2 °C 1014.6 hPa SW 4.7 km/h 6.4 km/h 87% 0.0 mm 255 W/m2
08:45 17.7 °C 15.5 °C 1014.2 hPa WNW 1.4 km/h 3.2 km/h 87% 0.0 mm 218 W/m2
08:50 17.7 °C 15.1 °C 1014.2 hPa Calm   6.4 km/h 85% 0.0 mm 151 W/m2
08:55 17.7 °C 15.1 °C 1014.2 hPa NW 4.7 km/h 6.4 km/h 85% 0.0 mm 142 W/m2
09:00 17.7 °C 15.1 °C 1014.6 hPa WSW 3.2 km/h 3.2 km/h 85% 0.0 mm 169 W/m2
09:05 17.7 °C 15 °C 1014.6 hPa West 1.4 km/h 9.7 km/h 84% 0.0 mm 120 W/m2
09:10 17.6 °C 14.9 °C 1014.6 hPa West 1.4 km/h 3.2 km/h 84% 0.0 mm 130 W/m2
09:15 17.5 °C 14.8 °C 1014.6 hPa Calm   8 km/h 84% 0.0 mm 120 W/m2
09:20 17.5 °C 14.9 °C 1014.6 hPa WNW 3.2 km/h 6.4 km/h 85% 0.0 mm 135 W/m2
09:25 17.5 °C 14.9 °C 1014.6 hPa West 3.2 km/h 4.8 km/h 85% 0.0 mm 144 W/m2
09:30 17.5 °C 14.9 °C 1014.9 hPa West 1.4 km/h 4.8 km/h 85% 0.0 mm 114 W/m2
09:35 17.4 °C 15 °C 1014.9 hPa West 3.2 km/h 6.4 km/h 86% 0.0 mm 102 W/m2
09:40 17.4 °C 15 °C 1014.9 hPa West 4.7 km/h 4.8 km/h 86% 0.0 mm 111 W/m2
09:45 17.3 °C 14.9 °C 1014.9 hPa WNW 1.4 km/h 9.7 km/h 86% 0.0 mm 107 W/m2
09:50 17.2 °C 15.2 °C 1014.9 hPa West 3.2 km/h 3.2 km/h 88% 0.2 mm 125 W/m2
09:55 17.1 °C 15.1 °C 1014.9 hPa West 3.2 km/h 8 km/h 88% 0.2 mm 172 W/m2
10:00 17.1 °C 15.1 °C 1014.9 hPa West 4.7 km/h 6.4 km/h 88% 0.2 mm 165 W/m2
10:05 17 °C 15 °C 1014.9 hPa WNW 3.2 km/h 8 km/h 88% 0.2 mm 128 W/m2
10:10 16.9 °C 15.1 °C 1014.9 hPa NNW 3.2 km/h 8 km/h 89% 0.2 mm 81 W/m2
10:15 16.9 °C 15.1 °C 1014.9 hPa SSW 4.7 km/h 4.8 km/h 89% 0.2 mm 90 W/m2
10:20 16.9 °C 15.1 °C 1014.9 hPa Calm   3.2 km/h 89% 0.2 mm 114 W/m2
10:25 16.9 °C 15.1 °C 1014.9 hPa West 1.4 km/h 3.2 km/h 89% 0.2 mm 60 W/m2
10:30 16.8 °C 14.8 °C 1014.9 hPa WNW 3.2 km/h 11.3 km/h 88% 0.2 mm 65 W/m2
10:35 16.7 °C 14.7 °C 1014.9 hPa NW 3.2 km/h 6.4 km/h 88% 0.2 mm 84 W/m2
10:41 16.7 °C 14.7 °C 1014.9 hPa WSW 4.7 km/h 6.4 km/h 88% 0.2 mm 97 W/m2
10:46 16.6 °C 14.6 °C 1014.9 hPa West 4.7 km/h 6.4 km/h 88% 0.2 mm 93 W/m2
10:51 16.6 °C 14.6 °C 1014.9 hPa West 3.2 km/h 12.9 km/h 88% 0.0 mm 100 W/m2
10:56 16.5 °C 14.7 °C 1014.9 hPa West 3.2 km/h 4.8 km/h 89% 0.0 mm 95 W/m2
11:01 16.5 °C 14.5 °C 1014.9 hPa NNW 3.2 km/h 12.9 km/h 88% 0.0 mm 95 W/m2
11:06 16.6 °C 14.4 °C 1014.9 hPa West 3.2 km/h 4.8 km/h 87% 0.0 mm 114 W/m2
11:11 16.7 °C 14.5 °C 1014.9 hPa West 1.4 km/h 6.4 km/h 87% 0.0 mm 155 W/m2
11:16 16.7 °C 14.5 °C 1014.9 hPa Calm   3.2 km/h 87% 0.0 mm 193 W/m2
11:21 16.8 °C 14.6 °C 1015.2 hPa NW 3.2 km/h 6.4 km/h 87% 0.0 mm 178 W/m2
11:26 16.9 °C 14.5 °C 1015.2 hPa West 1.4 km/h 4.8 km/h 86% 0.0 mm 153 W/m2
11:31 16.9 °C 14.4 °C 1015.2 hPa Calm   1.6 km/h 85% 0.0 mm 148 W/m2
11:36 17.1 °C 14.6 °C 1014.9 hPa Calm   3.2 km/h 85% 0.0 mm 127 W/m2
11:41 17.2 °C 14.5 °C 1015.2 hPa NW 1.4 km/h 3.2 km/h 84% 0.0 mm 86 W/m2
11:46 17.3 °C 14.4 °C 1014.9 hPa NW 1.4 km/h 3.2 km/h 83% 0.0 mm 88 W/m2
11:51 17.3 °C 14.6 °C 1015.2 hPa Calm   3.2 km/h 84% 0.0 mm 63 W/m2
11:56 17.3 °C 14.6 °C 1015.2 hPa Calm     84% 0.0 mm 63 W/m2
12:01 17.2 °C 14.7 °C 1015.2 hPa WSW 1.4 km/h 3.2 km/h 85% 0.0 mm 91 W/m2
12:06 17.2 °C 14.5 °C 1015.2 hPa West 1.4 km/h 1.6 km/h 84% 0.0 mm 104 W/m2
12:11 17.2 °C 14.5 °C 1015.6 hPa West 1.4 km/h 3.2 km/h 84% 0.0 mm 134 W/m2
12:16 17.2 °C 14.5 °C 1015.6 hPa West 1.4 km/h 3.2 km/h 84% 0.0 mm 148 W/m2
12:21 17.2 °C 14.3 °C 1015.2 hPa Calm   1.6 km/h 83% 0.0 mm 149 W/m2
12:26 17.3 °C 14.2 °C 1015.2 hPa WNW 4.7 km/h 6.4 km/h 82% 0.2 mm 139 W/m2
12:31 17.3 °C 14.2 °C 1015.2 hPa WNW 3.2 km/h 3.2 km/h 82% 0.2 mm 121 W/m2
12:36 17.3 °C 14.4 °C 1015.2 hPa Calm   3.2 km/h 83% 0.2 mm 102 W/m2
12:41 17.3 °C 14.2 °C 1015.2 hPa NE 1.4 km/h 1.6 km/h 82% 0.2 mm 109 W/m2
12:46 17.3 °C 13.8 °C 1015.2 hPa Calm   1.6 km/h 80% 0.2 mm 130 W/m2
12:51 17.3 °C 14.6 °C 1015.2 hPa Calm   1.6 km/h 84% 0.2 mm 134 W/m2
12:56 17.2 °C 14.8 °C 1015.2 hPa Calm     86% 0.5 mm 139 W/m2
13:01 17.1 °C 14.9 °C 1015.6 hPa Calm     87% 0.5 mm 146 W/m2
13:06 17.1 °C 14.9 °C 1015.2 hPa Calm   1.6 km/h 87% 0.5 mm 158 W/m2
13:11 17 °C 14.8 °C 1015.2 hPa North 1.4 km/h 1.6 km/h 87% 0.5 mm 134 W/m2
13:16 17 °C 14.8 °C 1015.2 hPa Calm   1.6 km/h 87% 0.5 mm 113 W/m2
13:21 17.1 °C 14.7 °C 1015.2 hPa Calm     86% 0.5 mm 135 W/m2
13:26 17.1 °C 14.9 °C 1015.2 hPa WNW 1.4 km/h 1.6 km/h 87% 0.5 mm 200 W/m2
13:31 17.2 °C 15.2 °C 1015.2 hPa NW 1.4 km/h 3.2 km/h 88% 0.5 mm 239 W/m2
13:36 17.3 °C 15.1 °C 1015.2 hPa Calm   1.6 km/h 87% 0.5 mm 343 W/m2
13:41 17.6 °C 15.2 °C 1015.2 hPa East 1.4 km/h 6.4 km/h 86% 0.5 mm 339 W/m2
13:46 17.7 °C 15.1 °C 1014.9 hPa ENE 4.7 km/h 4.8 km/h 85% 0.5 mm 529 W/m2
13:51 17.9 °C 15.3 °C 1014.9 hPa ENE 4.7 km/h 12.9 km/h 85% 0.5 mm 345 W/m2
13:56 18 °C 15.3 °C 1014.9 hPa ENE 1.4 km/h 3.2 km/h 84% 0.2 mm 313 W/m2
14:01 18 °C 15.1 °C 1014.9 hPa NE 3.2 km/h 12.9 km/h 83% 0.2 mm 251 W/m2
14:06 18 °C 15.1 °C 1014.9 hPa ESE 4.7 km/h 14.5 km/h 83% 0.2 mm 172 W/m2
14:11 18 °C 15.1 °C 1014.9 hPa Calm   9.7 km/h 83% 0.2 mm 206 W/m2
14:16 18 °C 14.9 °C 1014.6 hPa South 3.2 km/h 9.7 km/h 82% 0.0 mm 227 W/m2
14:21 18.2 °C 15.1 °C 1014.6 hPa NE 3.2 km/h 11.3 km/h 82% 0.0 mm 367 W/m2
14:26 18.3 °C 14.6 °C 1014.6 hPa East 4.7 km/h 9.7 km/h 79% 0.0 mm 468 W/m2
14:31 18.7 °C 15.4 °C 1014.6 hPa ENE 3.2 km/h 6.4 km/h 81% 0.0 mm 297 W/m2
14:36 18.8 °C 15.3 °C 1014.6 hPa NE 3.2 km/h 6.4 km/h 80% 0.0 mm 276 W/m2
14:41 18.7 °C 15.4 °C 1014.6 hPa SE 3.2 km/h 8 km/h 81% 0.0 mm 204 W/m2
14:46 18.7 °C 15.4 °C 1014.6 hPa ESE 3.2 km/h 6.4 km/h 81% 0.0 mm 202 W/m2
14:51 18.7 °C 15.2 °C 1014.6 hPa ENE 1.4 km/h 3.2 km/h 80% 0.0 mm 223 W/m2
14:56 18.7 °C 15.2 °C 1014.6 hPa SE 3.2 km/h 4.8 km/h 80% 0.0 mm 174 W/m2
15:01 18.7 °C 14.8 °C 1014.6 hPa ENE 3.2 km/h 8 km/h 78% 0.0 mm 176 W/m2
15:06 18.6 °C 14.1 °C 1014.9 hPa NE 4.7 km/h 6.4 km/h 75% 0.0 mm 135 W/m2
15:11 18.7 °C 14.4 °C 1014.9 hPa East 1.4 km/h 3.2 km/h 76% 0.0 mm 134 W/m2
15:16 18.7 °C 14.4 °C 1014.9 hPa ENE 1.4 km/h 4.8 km/h 76% 0.0 mm 120 W/m2
15:21 18.7 °C 14.6 °C 1014.9 hPa Calm   3.2 km/h 77% 0.0 mm 139 W/m2
15:26 18.7 °C 14.6 °C 1014.9 hPa Calm   4.8 km/h 77% 0.0 mm 176 W/m2
15:31 18.7 °C 14.4 °C 1014.9 hPa NNE 1.4 km/h 1.6 km/h 76% 0.0 mm 190 W/m2
15:36 18.8 °C 14.9 °C 1014.9 hPa NNW 4.7 km/h 6.4 km/h 78% 0.0 mm 193 W/m2
15:41 18.8 °C 14.5 °C 1015.2 hPa West 3.2 km/h 4.8 km/h 76% 0.0 mm 163 W/m2
15:46 18.7 °C 14.4 °C 1015.2 hPa WSW 3.2 km/h 4.8 km/h 76% 0.0 mm 142 W/m2
15:51 18.6 °C 14.5 °C 1015.2 hPa Calm   3.2 km/h 77% 0.0 mm 132 W/m2
15:56 18.6 °C 14.5 °C 1014.9 hPa Calm   6.4 km/h 77% 0.0 mm 128 W/m2
16:01 18.7 °C 14.6 °C 1014.9 hPa WNW 4.7 km/h 8 km/h 77% 0.0 mm 134 W/m2
16:06 18.6 °C 14.7 °C 1014.9 hPa West 3.2 km/h 6.4 km/h 78% 0.0 mm 146 W/m2
16:11 18.5 °C 15 °C 1014.9 hPa NW 3.2 km/h 6.4 km/h 80% 0.0 mm 141 W/m2
16:16 18.5 °C 15 °C 1014.9 hPa West 3.2 km/h 6.4 km/h 80% 0.0 mm 153 W/m2
16:21 18.5 °C 14.8 °C 1015.2 hPa WNW 3.2 km/h 9.7 km/h 79% 0.0 mm 104 W/m2
16:26 18.4 °C 14.7 °C 1015.2 hPa NW 4.7 km/h 6.4 km/h 79% 0.0 mm 95 W/m2
16:31 18.4 °C 14.7 °C 1015.2 hPa WNW 4.7 km/h 11.3 km/h 79% 0.0 mm 70 W/m2
16:36 18.3 °C 14.6 °C 1015.2 hPa NW 3.2 km/h 4.8 km/h 79% 0.0 mm 54 W/m2
16:41 18.3 °C 14.6 °C 1015.2 hPa West 3.2 km/h 11.3 km/h 79% 0.0 mm 60 W/m2
16:46 18.3 °C 14.6 °C 1014.9 hPa WNW 4.7 km/h 9.7 km/h 79% 0.0 mm 88 W/m2
16:51 18.3 °C 14.6 °C 1014.9 hPa NW 1.4 km/h 4.8 km/h 79% 0.0 mm 107 W/m2
16:56 18.3 °C 14.6 °C 1014.6 hPa West 4.7 km/h 8 km/h 79% 0.0 mm 125 W/m2
17:01 18.3 °C 14.4 °C 1014.6 hPa West 1.4 km/h 9.7 km/h 78% 0.0 mm 130 W/m2
17:06 18.4 °C 14.7 °C 1014.2 hPa Calm   6.4 km/h 79% 0.0 mm 167 W/m2
17:11 18.4 °C 14.7 °C 1014.2 hPa SW 4.7 km/h 8 km/h 79% 0.0 mm 200 W/m2
17:16 18.5 °C 14.2 °C 1013.9 hPa Calm   6.4 km/h 76% 0.0 mm 264 W/m2
17:21 18.7 °C 14.6 °C 1013.9 hPa ESE 1.4 km/h 4.8 km/h 77% 0.0 mm 200 W/m2
17:26 18.8 °C 14.7 °C 1013.5 hPa NNW 4.7 km/h 4.8 km/h 77% 0.0 mm 151 W/m2
17:31 18.8 °C 14.7 °C 1013.5 hPa NNE 1.4 km/h 4.8 km/h 77% 0.0 mm 104 W/m2
17:36 18.8 °C 14.5 °C 1013.5 hPa NE 3.2 km/h 9.7 km/h 76% 0.0 mm 104 W/m2
17:41 18.8 °C 14.7 °C 1013.5 hPa SSW 1.4 km/h 1.6 km/h 77% 0.0 mm 93 W/m2
17:46 18.8 °C 14.7 °C 1013.5 hPa ENE 1.4 km/h 9.7 km/h 77% 0.0 mm 93 W/m2
17:51 18.7 °C 14.6 °C 1013.5 hPa Calm   3.2 km/h 77% 0.0 mm 84 W/m2
17:56 18.7 °C 14.4 °C 1013.5 hPa ENE 3.2 km/h 8 km/h 76% 0.0 mm 69 W/m2
18:01 18.6 °C 14.5 °C 1013.5 hPa Calm   4.8 km/h 77% 0.0 mm 58 W/m2
18:06 18.6 °C 14.5 °C 1013.2 hPa ENE 1.4 km/h 6.4 km/h 77% 0.0 mm 69 W/m2
18:11 18.6 °C 14.5 °C 1013.2 hPa North 3.2 km/h 4.8 km/h 77% 0.0 mm 81 W/m2
18:16 18.5 °C 14.4 °C 1013.2 hPa NNW 1.4 km/h 3.2 km/h 77% 0.0 mm 84 W/m2
18:21 18.5 °C 14.4 °C 1013.2 hPa Calm   4.8 km/h 77% 0.0 mm 70 W/m2
18:26 18.6 °C 14.5 °C 1013.2 hPa Calm   3.2 km/h 77% 0.0 mm 104 W/m2
18:31 18.6 °C 14.7 °C 1013.5 hPa Calm   3.2 km/h 78% 0.0 mm 105 W/m2
18:36 18.7 °C 14.8 °C 1013.5 hPa NNW 4.7 km/h 4.8 km/h 78% 0.0 mm 88 W/m2
18:41 18.7 °C 14.6 °C 1013.5 hPa North 1.4 km/h 1.6 km/h 77% 0.0 mm 90 W/m2
18:46 18.7 °C 14.6 °C 1013.5 hPa Calm   1.6 km/h 77% 0.0 mm 84 W/m2
18:51 18.8 °C 14.7 °C 1013.5 hPa North 1.4 km/h 3.2 km/h 77% 0.0 mm 62 W/m2
18:56 18.8 °C 14.7 °C 1013.5 hPa NE 3.2 km/h 3.2 km/h 77% 0.0 mm 72 W/m2
19:01 18.8 °C 14.9 °C 1013.2 hPa WNW 3.2 km/h 6.4 km/h 78% 0.0 mm 62 W/m2
19:06 18.8 °C 14.9 °C 1013.2 hPa Calm   3.2 km/h 78% 0.0 mm 77 W/m2
19:11 18.7 °C 14.8 °C 1013.5 hPa West 3.2 km/h 9.7 km/h 78% 0.0 mm 81 W/m2
19:16 18.7 °C 15.2 °C 1013.5 hPa NW 7.9 km/h 8 km/h 80% 0.0 mm 105 W/m2
19:21 18.6 °C 15.1 °C 1013.5 hPa WSW 3.2 km/h 9.7 km/h 80% 0.0 mm 86 W/m2
19:26 18.6 °C 15.1 °C 1013.5 hPa West 9.7 km/h 9.7 km/h 80% 0.0 mm 67 W/m2
19:32 18.4 °C 15.1 °C 1013.5 hPa West 4.7 km/h 9.7 km/h 81% 0.0 mm 65 W/m2
19:37 18.3 °C 15.2 °C 1013.9 hPa WNW 4.7 km/h 6.4 km/h 82% 0.0 mm 67 W/m2
19:42 18.2 °C 15.1 °C 1013.5 hPa WSW 6.4 km/h 9.7 km/h 82% 0.0 mm 69 W/m2
19:47 18 °C 15.1 °C 1013.9 hPa WSW 4.7 km/h 6.4 km/h 83% 0.0 mm 60 W/m2
19:52 17.8 °C 15.1 °C 1013.5 hPa WNW 6.4 km/h 9.7 km/h 84% 0.0 mm 58 W/m2
19:57 17.8 °C 15.1 °C 1013.5 hPa WSW 4.7 km/h 11.3 km/h 84% 0.0 mm 46 W/m2
20:02 17.8 °C 15.2 °C 1013.2 hPa WNW 1.4 km/h 6.4 km/h 85% 0.0 mm 39 W/m2
20:07 17.8 °C 15.1 °C 1012.5 hPa WNW 6.4 km/h 8 km/h 84% 0.0 mm 21 W/m2
20:12 17.8 °C 14.9 °C 1013.2 hPa WNW 6.4 km/h 6.4 km/h 83% 0.0 mm 23 W/m2
20:17 17.8 °C 14.9 °C 1013.5 hPa West 3.2 km/h 6.4 km/h 83% 0.0 mm 26 W/m2
20:22 17.7 °C 14.8 °C 1013.5 hPa WSW 3.2 km/h 4.8 km/h 83% 0.0 mm 26 W/m2
20:27 17.7 °C 14.8 °C 1013.9 hPa Calm   1.6 km/h 83% 0.0 mm 21 W/m2
20:32 17.7 °C 15 °C 1013.9 hPa WSW 1.4 km/h 4.8 km/h 84% 0.0 mm 12 W/m2
20:37 17.6 °C 14.9 °C 1013.5 hPa West 4.7 km/h 4.8 km/h 84% 0.0 mm 11 W/m2
20:42 17.5 °C 14.8 °C 1013.5 hPa West 4.7 km/h 6.4 km/h 84% 0.0 mm 7 W/m2
20:47 17.4 °C 14.9 °C 1013.5 hPa WNW 1.4 km/h 4.8 km/h 85% 0.0 mm 5 W/m2
20:52 17.2 °C 14.8 °C 1013.9 hPa WSW 1.4 km/h 6.4 km/h 86% 0.0 mm 5 W/m2
20:57 17.1 °C 14.9 °C 1013.9 hPa WSW 3.2 km/h 6.4 km/h 87% 0.0 mm 0 W/m2
21:02 16.9 °C 14.7 °C 1013.9 hPa West 3.2 km/h 4.8 km/h 87% 0.2 mm 0 W/m2
21:07 16.7 °C 14.7 °C 1013.9 hPa West 4.7 km/h 6.4 km/h 88% 0.2 mm 0 W/m2
21:12 16.6 °C 14.8 °C 1013.5 hPa West 3.2 km/h 4.8 km/h 89% 0.5 mm 0 W/m2
21:17 16.4 °C 14.8 °C 1013.2 hPa WNW 3.2 km/h 4.8 km/h 90% 0.5 mm 0 W/m2
21:22 16.3 °C 14.7 °C 1012.5 hPa WNW 6.4 km/h 6.4 km/h 90% 0.8 mm 0 W/m2
21:27 16.3 °C 14.7 °C 1012.9 hPa West 4.7 km/h 8 km/h 90% 0.8 mm 0 W/m2
21:32 16.3 °C 14.8 °C 1013.2 hPa WNW 4.7 km/h 6.4 km/h 91% 0.8 mm 0 W/m2
21:37 16.2 °C 14.7 °C 1013.5 hPa SW 1.4 km/h 4.8 km/h 91% 0.8 mm 0 W/m2
21:42 16.2 °C 14.7 °C 1013.5 hPa WNW 1.4 km/h 3.2 km/h 91% 0.8 mm 0 W/m2
21:47 16.1 °C 14.8 °C 1013.2 hPa West 6.4 km/h 9.7 km/h 92% 0.8 mm 0 W/m2
21:52 16 °C 14.5 °C 1013.2 hPa WSW 3.2 km/h 4.8 km/h 91% 0.8 mm 0 W/m2
21:57 16 °C 14.7 °C 1013.5 hPa WSW 3.2 km/h 8 km/h 92% 0.8 mm 0 W/m2
22:02 15.9 °C 14.6 °C 1013.9 hPa SSW 1.4 km/h 3.2 km/h 92% 0.5 mm 0 W/m2
22:07 15.9 °C 14.6 °C 1013.5 hPa Calm   6.4 km/h 92% 0.5 mm 0 W/m2
22:12 15.9 °C 14.6 °C 1013.5 hPa SSW 1.4 km/h 3.2 km/h 92% 0.5 mm 0 W/m2
22:17 15.9 °C 14.6 °C 1013.5 hPa SSW 3.2 km/h 3.2 km/h 92% 0.5 mm 0 W/m2
22:22 15.9 °C 14.8 °C 1013.5 hPa Calm   1.6 km/h 93% 0.2 mm 0 W/m2
22:27 15.9 °C 14.8 °C 1013.5 hPa Calm   1.6 km/h 93% 0.2 mm 0 W/m2
22:32 15.8 °C 14.7 °C 1013.5 hPa Calm   1.6 km/h 93% 0.2 mm 0 W/m2
22:37 15.8 °C 14.7 °C 1013.2 hPa Calm   3.2 km/h 93% 0.2 mm 0 W/m2
22:42 15.8 °C 14.7 °C 1013.2 hPa Calm   3.2 km/h 93% 0.2 mm 0 W/m2
22:47 15.7 °C 14.6 °C 1013.2 hPa Calm     93% 0.2 mm 0 W/m2
22:52 15.7 °C 14.7 °C 1013.5 hPa SW 3.2 km/h 3.2 km/h 94% 0.2 mm 0 W/m2
22:57 15.7 °C 14.7 °C 1013.5 hPa Calm   1.6 km/h 94% 0.2 mm 0 W/m2
23:02 15.7 °C 14.7 °C 1013.5 hPa West 1.4 km/h 1.6 km/h 94% 0.2 mm 0 W/m2
23:07 15.6 °C 14.6 °C 1013.2 hPa SSW 3.2 km/h 4.8 km/h 94% 0.2 mm 0 W/m2
23:12 15.6 °C 14.6 °C 1013.2 hPa SSE 1.4 km/h 3.2 km/h 94% 0.0 mm 0 W/m2
23:17 15.6 °C 14.6 °C 1013.2 hPa Calm   4.8 km/h 94% 0.0 mm 0 W/m2
23:22 15.6 °C 14.6 °C 1013.2 hPa SSE 1.4 km/h 1.6 km/h 94% 0.0 mm 0 W/m2
23:27 15.5 °C 14.5 °C 1013.2 hPa Calm   3.2 km/h 94% 0.0 mm 0 W/m2
23:32 15.5 °C 14.5 °C 1013.2 hPa West 3.2 km/h 4.8 km/h 94% 0.0 mm 0 W/m2
23:37 15.5 °C 14.5 °C 1013.2 hPa WSW 4.7 km/h 4.8 km/h 94% 0.0 mm 0 W/m2
23:42 15.5 °C 14.5 °C 1013.2 hPa West 1.4 km/h 4.8 km/h 94% 0.0 mm 0 W/m2
23:47 15.6 °C 14.6 °C 1013.2 hPa SW 1.4 km/h 3.2 km/h 94% 0.0 mm 0 W/m2
23:52 15.6 °C 14.6 °C 1012.9 hPa Calm   1.6 km/h 94% 0.0 mm 0 W/m2
23:57 15.6 °C 14.6 °C 1013.2 hPa Calm   3.2 km/h 94% 0.0 mm 0 W/m2
Juneau County Weather
Compliments of Weather Underground - 4 mb